sensor_id;sensor_type;location;lat;lon;timestamp;temperature;humidity
52669;DHT22;59898;52.786;6.892;2022-08-19T00:01:54;18.10;99.90
52669;DHT22;59898;52.786;6.892;2022-08-19T00:05:16;18.00;99.90
52669;DHT22;59898;52.786;6.892;2022-08-19T00:08:37;17.90;99.90
52669;DHT22;59898;52.786;6.892;2022-08-19T00:11:59;17.80;99.90
52669;DHT22;59898;52.786;6.892;2022-08-19T00:15:21;17.70;99.90
52669;DHT22;59898;52.786;6.892;2022-08-19T00:18:42;17.60;99.90
52669;DHT22;59898;52.786;6.892;2022-08-19T00:22:04;17.50;99.90
52669;DHT22;59898;52.786;6.892;2022-08-19T00:25:25;17.50;99.90
52669;DHT22;59898;52.786;6.892;2022-08-19T00:28:46;17.50;99.90
52669;DHT22;59898;52.786;6.892;2022-08-19T00:32:07;17.50;99.90
52669;DHT22;59898;52.786;6.892;2022-08-19T00:35:28;17.60;99.90
52669;DHT22;59898;52.786;6.892;2022-08-19T00:38:49;17.60;99.90
52669;DHT22;59898;52.786;6.892;2022-08-19T00:42:11;17.60;99.90
52669;DHT22;59898;52.786;6.892;2022-08-19T00:45:34;17.60;99.90
52669;DHT22;59898;52.786;6.892;2022-08-19T00:48:56;17.50;99.90
52669;DHT22;59898;52.786;6.892;2022-08-19T00:52:28;17.50;99.90
52669;DHT22;59898;52.786;6.892;2022-08-19T00:55:51;17.50;99.90
52669;DHT22;59898;52.786;6.892;2022-08-19T00:59:14;17.50;99.90
52669;DHT22;59898;52.786;6.892;2022-08-19T01:02:35;17.50;99.90
52669;DHT22;59898;52.786;6.892;2022-08-19T01:05:56;17.40;99.90
52669;DHT22;59898;52.786;6.892;2022-08-19T01:09:17;17.40;99.90
52669;DHT22;59898;52.786;6.892;2022-08-19T01:12:38;17.30;99.90
52669;DHT22;59898;52.786;6.892;2022-08-19T01:16:05;17.40;99.90
52669;DHT22;59898;52.786;6.892;2022-08-19T01:19:34;17.40;99.90
52669;DHT22;59898;52.786;6.892;2022-08-19T01:22:58;17.50;99.90
52669;DHT22;59898;52.786;6.892;2022-08-19T01:26:21;17.50;99.90
52669;DHT22;59898;52.786;6.892;2022-08-19T01:29:43;17.70;99.90
52669;DHT22;59898;52.786;6.892;2022-08-19T01:33:05;17.70;99.90
52669;DHT22;59898;52.786;6.892;2022-08-19T01:36:41;17.60;99.90
52669;DHT22;59898;52.786;6.892;2022-08-19T01:40:02;17.60;99.90
52669;DHT22;59898;52.786;6.892;2022-08-19T01:43:23;17.60;99.90
52669;DHT22;59898;52.786;6.892;2022-08-19T01:46:45;17.60;99.90
52669;DHT22;59898;52.786;6.892;2022-08-19T01:50:10;17.70;99.90
52669;DHT22;59898;52.786;6.892;2022-08-19T01:53:31;17.70;99.90
52669;DHT22;59898;52.786;6.892;2022-08-19T01:56:52;17.60;99.90
52669;DHT22;59898;52.786;6.892;2022-08-19T02:00:17;17.60;99.90
52669;DHT22;59898;52.786;6.892;2022-08-19T02:03:38;17.60;99.90
52669;DHT22;59898;52.786;6.892;2022-08-19T02:06:59;17.50;99.90
52669;DHT22;59898;52.786;6.892;2022-08-19T02:10:21;17.50;99.90
52669;DHT22;59898;52.786;6.892;2022-08-19T02:13:42;17.40;99.90
52669;DHT22;59898;52.786;6.892;2022-08-19T02:17:03;17.40;99.90
52669;DHT22;59898;52.786;6.892;2022-08-19T02:20:24;17.30;99.90
52669;DHT22;59898;52.786;6.892;2022-08-19T02:23:44;17.30;99.90
52669;DHT22;59898;52.786;6.892;2022-08-19T02:27:05;17.30;99.90
52669;DHT22;59898;52.786;6.892;2022-08-19T02:30:26;17.30;99.90
52669;DHT22;59898;52.786;6.892;2022-08-19T02:33:47;17.20;99.90
52669;DHT22;59898;52.786;6.892;2022-08-19T02:37:08;17.20;99.90
52669;DHT22;59898;52.786;6.892;2022-08-19T02:40:50;17.20;99.90
52669;DHT22;59898;52.786;6.892;2022-08-19T02:44:12;17.30;99.90
52669;DHT22;59898;52.786;6.892;2022-08-19T02:47:33;17.40;99.90
52669;DHT22;59898;52.786;6.892;2022-08-19T02:50:54;17.40;99.90
52669;DHT22;59898;52.786;6.892;2022-08-19T02:54:15;17.50;99.90
52669;DHT22;59898;52.786;6.892;2022-08-19T02:57:36;17.50;99.90
52669;DHT22;59898;52.786;6.892;2022-08-19T03:00:57;17.60;99.90
52669;DHT22;59898;52.786;6.892;2022-08-19T03:04:18;17.50;99.90
52669;DHT22;59898;52.786;6.892;2022-08-19T03:07:39;17.50;99.90
52669;DHT22;59898;52.786;6.892;2022-08-19T03:11:00;17.70;99.90
52669;DHT22;59898;52.786;6.892;2022-08-19T03:14:21;17.70;99.90
52669;DHT22;59898;52.786;6.892;2022-08-19T03:17:41;17.80;99.90
52669;DHT22;59898;52.786;6.892;2022-08-19T03:21:02;17.80;99.90
52669;DHT22;59898;52.786;6.892;2022-08-19T03:24:24;17.90;99.90
52669;DHT22;59898;52.786;6.892;2022-08-19T03:27:44;17.90;99.90
52669;DHT22;59898;52.786;6.892;2022-08-19T03:31:13;17.90;99.90
52669;DHT22;59898;52.786;6.892;2022-08-19T03:34:36;17.90;99.90
52669;DHT22;59898;52.786;6.892;2022-08-19T03:37:59;17.90;99.90
52669;DHT22;59898;52.786;6.892;2022-08-19T03:41:22;18.00;99.90
52669;DHT22;59898;52.786;6.892;2022-08-19T03:44:43;17.90;99.90
52669;DHT22;59898;52.786;6.892;2022-08-19T03:48:05;17.80;99.90
52669;DHT22;59898;52.786;6.892;2022-08-19T03:51:34;17.70;99.90
52669;DHT22;59898;52.786;6.892;2022-08-19T03:54:56;17.70;99.90
52669;DHT22;59898;52.786;6.892;2022-08-19T03:58:16;17.80;99.90
52669;DHT22;59898;52.786;6.892;2022-08-19T04:01:37;17.80;99.90
52669;DHT22;59898;52.786;6.892;2022-08-19T04:04:57;17.80;99.90
52669;DHT22;59898;52.786;6.892;2022-08-19T04:08:18;17.80;99.90
52669;DHT22;59898;52.786;6.892;2022-08-19T04:11:51;17.80;99.90
52669;DHT22;59898;52.786;6.892;2022-08-19T04:15:15;17.90;99.90
52669;DHT22;59898;52.786;6.892;2022-08-19T04:18:38;17.90;99.90
52669;DHT22;59898;52.786;6.892;2022-08-19T04:21:59;17.90;99.90
52669;DHT22;59898;52.786;6.892;2022-08-19T04:25:20;17.90;99.90
52669;DHT22;59898;52.786;6.892;2022-08-19T04:28:41;17.80;99.90
52669;DHT22;59898;52.786;6.892;2022-08-19T04:32:02;17.80;99.90
52669;DHT22;59898;52.786;6.892;2022-08-19T04:35:23;17.70;99.90
52669;DHT22;59898;52.786;6.892;2022-08-19T04:38:43;17.80;99.90
52669;DHT22;59898;52.786;6.892;2022-08-19T04:42:04;18.00;99.90
52669;DHT22;59898;52.786;6.892;2022-08-19T04:45:44;18.30;99.90
52669;DHT22;59898;52.786;6.892;2022-08-19T04:49:06;18.50;99.90
52669;DHT22;59898;52.786;6.892;2022-08-19T04:52:27;18.70;99.90
52669;DHT22;59898;52.786;6.892;2022-08-19T04:55:47;18.90;99.90
52669;DHT22;59898;52.786;6.892;2022-08-19T04:59:08;18.90;99.90
52669;DHT22;59898;52.786;6.892;2022-08-19T05:02:29;19.00;99.90
52669;DHT22;59898;52.786;6.892;2022-08-19T05:05:49;19.10;99.90
52669;DHT22;59898;52.786;6.892;2022-08-19T05:09:10;19.20;99.90
52669;DHT22;59898;52.786;6.892;2022-08-19T05:12:31;19.30;99.90
52669;DHT22;59898;52.786;6.892;2022-08-19T05:15:58;19.40;99.90
52669;DHT22;59898;52.786;6.892;2022-08-19T05:19:19;19.60;99.90
52669;DHT22;59898;52.786;6.892;2022-08-19T05:22:58;19.60;99.90
52669;DHT22;59898;52.786;6.892;2022-08-19T05:26:19;19.70;99.90
52669;DHT22;59898;52.786;6.892;2022-08-19T05:29:40;19.70;99.90
52669;DHT22;59898;52.786;6.892;2022-08-19T05:33:00;19.70;99.90
52669;DHT22;59898;52.786;6.892;2022-08-19T05:36:21;19.80;99.90
52669;DHT22;59898;52.786;6.892;2022-08-19T05:39:42;19.80;99.90
52669;DHT22;59898;52.786;6.892;2022-08-19T05:43:04;19.90;99.90
52669;DHT22;59898;52.786;6.892;2022-08-19T05:46:26;19.90;99.90
52669;DHT22;59898;52.786;6.892;2022-08-19T05:49:47;19.90;99.90
52669;DHT22;59898;52.786;6.892;2022-08-19T05:53:10;19.60;99.90
52669;DHT22;59898;52.786;6.892;2022-08-19T05:56:31;19.20;99.90
52669;DHT22;59898;52.786;6.892;2022-08-19T05:59:52;18.90;99.90
52669;DHT22;59898;52.786;6.892;2022-08-19T06:03:14;18.70;99.90
52669;DHT22;59898;52.786;6.892;2022-08-19T06:06:35;18.50;99.90
52669;DHT22;59898;52.786;6.892;2022-08-19T06:09:56;18.30;99.90
52669;DHT22;59898;52.786;6.892;2022-08-19T06:13:16;18.20;99.90
52669;DHT22;59898;52.786;6.892;2022-08-19T06:16:40;18.20;99.90
52669;DHT22;59898;52.786;6.892;2022-08-19T06:20:03;18.40;99.90
52669;DHT22;59898;52.786;6.892;2022-08-19T06:23:24;18.40;99.90
52669;DHT22;59898;52.786;6.892;2022-08-19T06:26:47;18.50;99.90
52669;DHT22;59898;52.786;6.892;2022-08-19T06:30:09;18.50;99.90
52669;DHT22;59898;52.786;6.892;2022-08-19T06:33:32;18.60;99.90
52669;DHT22;59898;52.786;6.892;2022-08-19T06:36:54;18.60;99.90
52669;DHT22;59898;52.786;6.892;2022-08-19T06:40:14;18.70;99.90
52669;DHT22;59898;52.786;6.892;2022-08-19T06:43:35;18.80;99.90
52669;DHT22;59898;52.786;6.892;2022-08-19T06:46:56;18.80;99.90
52669;DHT22;59898;52.786;6.892;2022-08-19T06:50:17;18.90;99.90
52669;DHT22;59898;52.786;6.892;2022-08-19T06:53:39;18.90;99.90
52669;DHT22;59898;52.786;6.892;2022-08-19T06:57:01;19.20;99.90
52669;DHT22;59898;52.786;6.892;2022-08-19T07:00:22;19.30;99.90
52669;DHT22;59898;52.786;6.892;2022-08-19T07:03:43;19.40;99.90
52669;DHT22;59898;52.786;6.892;2022-08-19T07:07:09;19.60;99.90
52669;DHT22;59898;52.786;6.892;2022-08-19T07:10:32;19.90;99.90
52669;DHT22;59898;52.786;6.892;2022-08-19T07:13:53;20.30;99.90
52669;DHT22;59898;52.786;6.892;2022-08-19T07:17:15;20.90;99.90
52669;DHT22;59898;52.786;6.892;2022-08-19T07:20:35;21.40;99.90
52669;DHT22;59898;52.786;6.892;2022-08-19T07:23:59;21.90;99.90
52669;DHT22;59898;52.786;6.892;2022-08-19T07:27:19;22.10;99.90
52669;DHT22;59898;52.786;6.892;2022-08-19T07:30:40;22.10;99.90
52669;DHT22;59898;52.786;6.892;2022-08-19T07:34:07;22.20;99.90
52669;DHT22;59898;52.786;6.892;2022-08-19T07:37:28;22.60;99.90
52669;DHT22;59898;52.786;6.892;2022-08-19T07:40:49;22.90;99.90
52669;DHT22;59898;52.786;6.892;2022-08-19T07:44:12;23.10;99.90
52669;DHT22;59898;52.786;6.892;2022-08-19T07:47:33;23.40;99.90
52669;DHT22;59898;52.786;6.892;2022-08-19T07:50:56;23.50;99.90
52669;DHT22;59898;52.786;6.892;2022-08-19T07:54:19;23.80;99.90
52669;DHT22;59898;52.786;6.892;2022-08-19T07:57:40;24.00;99.90
52669;DHT22;59898;52.786;6.892;2022-08-19T08:01:02;24.10;99.90
52669;DHT22;59898;52.786;6.892;2022-08-19T08:04:23;24.30;99.90
52669;DHT22;59898;52.786;6.892;2022-08-19T08:08:02;24.30;99.90
52669;DHT22;59898;52.786;6.892;2022-08-19T08:11:54;24.40;99.90
52669;DHT22;59898;52.786;6.892;2022-08-19T08:15:17;24.50;99.90
52669;DHT22;59898;52.786;6.892;2022-08-19T08:18:39;24.50;99.90
52669;DHT22;59898;52.786;6.892;2022-08-19T08:22:03;24.60;99.90
52669;DHT22;59898;52.786;6.892;2022-08-19T08:25:26;24.70;99.90
52669;DHT22;59898;52.786;6.892;2022-08-19T08:28:47;24.80;99.90
52669;DHT22;59898;52.786;6.892;2022-08-19T08:32:08;24.90;99.90
52669;DHT22;59898;52.786;6.892;2022-08-19T08:35:29;24.90;99.90
52669;DHT22;59898;52.786;6.892;2022-08-19T08:38:49;25.00;99.90
52669;DHT22;59898;52.786;6.892;2022-08-19T08:42:20;25.10;99.90
52669;DHT22;59898;52.786;6.892;2022-08-19T08:46:03;25.10;99.90
52669;DHT22;59898;52.786;6.892;2022-08-19T08:49:27;25.30;99.90
52669;DHT22;59898;52.786;6.892;2022-08-19T08:52:52;25.40;99.90
52669;DHT22;59898;52.786;6.892;2022-08-19T08:56:16;25.50;99.90
52669;DHT22;59898;52.786;6.892;2022-08-19T08:59:40;25.60;99.90
52669;DHT22;59898;52.786;6.892;2022-08-19T09:03:03;25.70;99.90
52669;DHT22;59898;52.786;6.892;2022-08-19T09:10:48;25.90;99.90
52669;DHT22;59898;52.786;6.892;2022-08-19T09:17:41;26.00;99.90
52669;DHT22;59898;52.786;6.892;2022-08-19T09:21:01;26.00;99.90
52669;DHT22;59898;52.786;6.892;2022-08-19T09:24:22;26.00;99.90
52669;DHT22;59898;52.786;6.892;2022-08-19T09:27:43;26.10;99.90
52669;DHT22;59898;52.786;6.892;2022-08-19T09:31:04;26.00;99.90
52669;DHT22;59898;52.786;6.892;2022-08-19T09:34:25;26.20;99.90
52669;DHT22;59898;52.786;6.892;2022-08-19T09:37:46;26.30;99.90
52669;DHT22;59898;52.786;6.892;2022-08-19T09:41:11;26.30;99.90
52669;DHT22;59898;52.786;6.892;2022-08-19T09:44:33;26.30;99.90
52669;DHT22;59898;52.786;6.892;2022-08-19T09:47:54;26.30;99.90
52669;DHT22;59898;52.786;6.892;2022-08-19T09:51:19;26.50;99.90
52669;DHT22;59898;52.786;6.892;2022-08-19T09:54:41;26.50;99.90
52669;DHT22;59898;52.786;6.892;2022-08-19T09:58:02;26.60;99.90
52669;DHT22;59898;52.786;6.892;2022-08-19T10:01:26;26.50;99.90
52669;DHT22;59898;52.786;6.892;2022-08-19T10:04:47;26.60;99.90
52669;DHT22;59898;52.786;6.892;2022-08-19T10:08:28;26.60;99.90
52669;DHT22;59898;52.786;6.892;2022-08-19T10:11:50;26.80;99.90
52669;DHT22;59898;52.786;6.892;2022-08-19T10:15:10;26.90;99.90
52669;DHT22;59898;52.786;6.892;2022-08-19T10:18:32;26.90;99.80
52669;DHT22;59898;52.786;6.892;2022-08-19T10:21:54;27.00;99.90
52669;DHT22;59898;52.786;6.892;2022-08-19T10:25:15;27.20;99.90
52669;DHT22;59898;52.786;6.892;2022-08-19T10:28:37;27.40;99.60
52669;DHT22;59898;52.786;6.892;2022-08-19T10:32:01;27.50;99.40
52669;DHT22;59898;52.786;6.892;2022-08-19T10:35:22;27.60;99.10
52669;DHT22;59898;52.786;6.892;2022-08-19T10:38:46;27.70;99.00
52669;DHT22;59898;52.786;6.892;2022-08-19T10:42:08;27.80;98.70
52669;DHT22;59898;52.786;6.892;2022-08-19T10:45:30;27.70;98.70
52669;DHT22;59898;52.786;6.892;2022-08-19T10:48:52;27.70;98.50
52669;DHT22;59898;52.786;6.892;2022-08-19T10:52:13;27.70;98.30
52669;DHT22;59898;52.786;6.892;2022-08-19T10:55:52;27.80;98.30
52669;DHT22;59898;52.786;6.892;2022-08-19T10:59:31;28.00;98.10
52669;DHT22;59898;52.786;6.892;2022-08-19T11:02:52;28.10;97.80
52669;DHT22;59898;52.786;6.892;2022-08-19T11:06:13;28.10;97.70
52669;DHT22;59898;52.786;6.892;2022-08-19T11:09:39;28.00;97.50
52669;DHT22;59898;52.786;6.892;2022-08-19T11:13:00;27.90;97.40
52669;DHT22;59898;52.786;6.892;2022-08-19T11:16:26;27.70;97.40
52669;DHT22;59898;52.786;6.892;2022-08-19T11:19:48;27.60;97.50
52669;DHT22;59898;52.786;6.892;2022-08-19T11:23:09;27.50;97.20
52669;DHT22;59898;52.786;6.892;2022-08-19T11:26:31;27.60;97.30
52669;DHT22;59898;52.786;6.892;2022-08-19T11:29:52;27.70;97.30
52669;DHT22;59898;52.786;6.892;2022-08-19T11:33:13;27.70;97.00
52669;DHT22;59898;52.786;6.892;2022-08-19T11:36:36;27.80;96.90
52669;DHT22;59898;52.786;6.892;2022-08-19T11:39:58;27.80;96.70
52669;DHT22;59898;52.786;6.892;2022-08-19T11:43:20;27.80;96.60
52669;DHT22;59898;52.786;6.892;2022-08-19T11:46:42;27.80;96.60
52669;DHT22;59898;52.786;6.892;2022-08-19T11:50:07;27.80;96.30
52669;DHT22;59898;52.786;6.892;2022-08-19T11:53:29;27.60;96.50
52669;DHT22;59898;52.786;6.892;2022-08-19T11:56:50;27.30;96.50
52669;DHT22;59898;52.786;6.892;2022-08-19T12:00:12;27.20;96.60
52669;DHT22;59898;52.786;6.892;2022-08-19T12:03:33;26.90;96.70
52669;DHT22;59898;52.786;6.892;2022-08-19T12:06:54;26.60;96.80
52669;DHT22;59898;52.786;6.892;2022-08-19T12:10:15;26.50;96.80
52669;DHT22;59898;52.786;6.892;2022-08-19T12:13:44;26.50;96.90
52669;DHT22;59898;52.786;6.892;2022-08-19T12:17:08;26.80;96.80
52669;DHT22;59898;52.786;6.892;2022-08-19T12:20:29;27.10;96.50
52669;DHT22;59898;52.786;6.892;2022-08-19T12:23:50;27.20;96.70
52669;DHT22;59898;52.786;6.892;2022-08-19T12:27:11;27.20;96.80
52669;DHT22;59898;52.786;6.892;2022-08-19T12:30:32;26.90;96.80
52669;DHT22;59898;52.786;6.892;2022-08-19T12:33:53;26.80;97.00
52669;DHT22;59898;52.786;6.892;2022-08-19T12:37:13;26.50;97.50
52669;DHT22;59898;52.786;6.892;2022-08-19T12:40:34;26.50;97.70
52669;DHT22;59898;52.786;6.892;2022-08-19T12:43:55;26.40;97.80
52669;DHT22;59898;52.786;6.892;2022-08-19T12:47:16;26.30;97.80
52669;DHT22;59898;52.786;6.892;2022-08-19T12:50:40;26.30;97.90
52669;DHT22;59898;52.786;6.892;2022-08-19T12:54:01;26.30;98.20
52669;DHT22;59898;52.786;6.892;2022-08-19T12:57:25;26.20;98.30
52669;DHT22;59898;52.786;6.892;2022-08-19T13:00:46;26.40;97.80
52669;DHT22;59898;52.786;6.892;2022-08-19T13:04:07;26.50;97.40
52669;DHT22;59898;52.786;6.892;2022-08-19T13:07:28;26.70;97.30
52669;DHT22;59898;52.786;6.892;2022-08-19T13:10:48;26.70;97.20
52669;DHT22;59898;52.786;6.892;2022-08-19T13:14:09;26.60;97.30
52669;DHT22;59898;52.786;6.892;2022-08-19T13:17:33;26.50;97.30
52669;DHT22;59898;52.786;6.892;2022-08-19T13:20:54;26.50;97.20
52669;DHT22;59898;52.786;6.892;2022-08-19T13:24:14;26.50;97.10
52669;DHT22;59898;52.786;6.892;2022-08-19T13:27:36;26.40;97.20
52669;DHT22;59898;52.786;6.892;2022-08-19T13:30:56;26.40;97.20
52669;DHT22;59898;52.786;6.892;2022-08-19T13:34:36;26.50;96.70
52669;DHT22;59898;52.786;6.892;2022-08-19T13:37:57;26.60;96.10
52669;DHT22;59898;52.786;6.892;2022-08-19T13:41:18;26.70;95.80
52669;DHT22;59898;52.786;6.892;2022-08-19T13:44:39;26.70;95.60
52669;DHT22;59898;52.786;6.892;2022-08-19T13:48:02;26.80;95.30
52669;DHT22;59898;52.786;6.892;2022-08-19T13:51:26;26.80;95.30
52669;DHT22;59898;52.786;6.892;2022-08-19T13:54:47;26.80;95.10
52669;DHT22;59898;52.786;6.892;2022-08-19T13:58:09;26.70;95.00
52669;DHT22;59898;52.786;6.892;2022-08-19T14:01:31;26.70;94.50
52669;DHT22;59898;52.786;6.892;2022-08-19T14:04:51;26.70;94.60
52669;DHT22;59898;52.786;6.892;2022-08-19T14:08:12;26.60;94.80
52669;DHT22;59898;52.786;6.892;2022-08-19T14:11:34;26.60;94.90
52669;DHT22;59898;52.786;6.892;2022-08-19T14:14:55;26.60;94.90
52669;DHT22;59898;52.786;6.892;2022-08-19T14:18:16;26.50;94.80
52669;DHT22;59898;52.786;6.892;2022-08-19T14:21:38;26.60;94.50
52669;DHT22;59898;52.786;6.892;2022-08-19T14:24:59;26.50;94.20
52669;DHT22;59898;52.786;6.892;2022-08-19T14:28:20;26.60;94.20
52669;DHT22;59898;52.786;6.892;2022-08-19T14:31:41;26.60;94.10
52669;DHT22;59898;52.786;6.892;2022-08-19T14:35:03;26.60;94.30
52669;DHT22;59898;52.786;6.892;2022-08-19T14:38:24;26.60;94.30
52669;DHT22;59898;52.786;6.892;2022-08-19T14:41:45;26.60;94.20
52669;DHT22;59898;52.786;6.892;2022-08-19T14:45:06;26.60;93.60
52669;DHT22;59898;52.786;6.892;2022-08-19T14:48:27;26.60;93.40
52669;DHT22;59898;52.786;6.892;2022-08-19T14:51:48;26.70;93.40
52669;DHT22;59898;52.786;6.892;2022-08-19T14:55:09;26.70;94.10
52669;DHT22;59898;52.786;6.892;2022-08-19T14:58:29;26.70;94.80
52669;DHT22;59898;52.786;6.892;2022-08-19T15:01:50;26.70;95.00
52669;DHT22;59898;52.786;6.892;2022-08-19T15:05:11;26.70;95.00
52669;DHT22;59898;52.786;6.892;2022-08-19T15:08:34;26.70;95.00
52669;DHT22;59898;52.786;6.892;2022-08-19T15:11:57;26.60;94.90
52669;DHT22;59898;52.786;6.892;2022-08-19T15:15:19;26.60;94.80
52669;DHT22;59898;52.786;6.892;2022-08-19T15:18:40;26.50;95.40
52669;DHT22;59898;52.786;6.892;2022-08-19T15:22:04;26.40;96.00
52669;DHT22;59898;52.786;6.892;2022-08-19T15:25:26;26.30;96.60
52669;DHT22;59898;52.786;6.892;2022-08-19T15:28:47;26.30;97.20
52669;DHT22;59898;52.786;6.892;2022-08-19T15:32:08;26.20;97.60
52669;DHT22;59898;52.786;6.892;2022-08-19T15:35:29;26.20;98.40
52669;DHT22;59898;52.786;6.892;2022-08-19T15:38:50;26.10;99.30
52669;DHT22;59898;52.786;6.892;2022-08-19T15:42:12;26.10;99.60
52669;DHT22;59898;52.786;6.892;2022-08-19T15:45:33;26.10;99.90
52669;DHT22;59898;52.786;6.892;2022-08-19T15:48:54;26.10;99.90
52669;DHT22;59898;52.786;6.892;2022-08-19T15:52:19;26.00;99.90
52669;DHT22;59898;52.786;6.892;2022-08-19T15:55:44;26.00;99.90
52669;DHT22;59898;52.786;6.892;2022-08-19T15:59:05;26.10;99.90
52669;DHT22;59898;52.786;6.892;2022-08-19T16:02:44;26.10;99.90
52669;DHT22;59898;52.786;6.892;2022-08-19T16:06:23;26.00;99.90
52669;DHT22;59898;52.786;6.892;2022-08-19T16:09:47;25.90;99.90
52669;DHT22;59898;52.786;6.892;2022-08-19T16:13:08;25.90;99.90
52669;DHT22;59898;52.786;6.892;2022-08-19T16:16:32;25.80;99.90
52669;DHT22;59898;52.786;6.892;2022-08-19T16:19:53;25.80;99.90
52669;DHT22;59898;52.786;6.892;2022-08-19T16:23:13;25.80;99.90
52669;DHT22;59898;52.786;6.892;2022-08-19T16:26:36;25.80;99.90
52669;DHT22;59898;52.786;6.892;2022-08-19T16:29:56;25.70;99.90
52669;DHT22;59898;52.786;6.892;2022-08-19T16:33:17;25.70;99.90
52669;DHT22;59898;52.786;6.892;2022-08-19T16:36:38;25.60;99.90
52669;DHT22;59898;52.786;6.892;2022-08-19T16:40:01;25.60;99.90
52669;DHT22;59898;52.786;6.892;2022-08-19T16:43:23;25.60;99.90
52669;DHT22;59898;52.786;6.892;2022-08-19T16:46:45;25.60;99.90
52669;DHT22;59898;52.786;6.892;2022-08-19T16:50:06;25.60;99.90
52669;DHT22;59898;52.786;6.892;2022-08-19T16:53:27;25.60;99.90
52669;DHT22;59898;52.786;6.892;2022-08-19T16:56:48;25.60;99.90
52669;DHT22;59898;52.786;6.892;2022-08-19T17:00:10;25.60;99.90
52669;DHT22;59898;52.786;6.892;2022-08-19T17:03:34;25.60;99.90
52669;DHT22;59898;52.786;6.892;2022-08-19T17:06:55;25.60;99.90
52669;DHT22;59898;52.786;6.892;2022-08-19T17:10:15;25.60;99.90
52669;DHT22;59898;52.786;6.892;2022-08-19T17:13:37;25.60;99.90
52669;DHT22;59898;52.786;6.892;2022-08-19T17:16:58;25.60;99.90
52669;DHT22;59898;52.786;6.892;2022-08-19T17:20:19;25.60;99.90
52669;DHT22;59898;52.786;6.892;2022-08-19T17:23:40;25.50;99.90
52669;DHT22;59898;52.786;6.892;2022-08-19T17:27:01;25.50;99.90
52669;DHT22;59898;52.786;6.892;2022-08-19T17:30:22;25.50;99.90
52669;DHT22;59898;52.786;6.892;2022-08-19T17:33:43;25.50;99.90
52669;DHT22;59898;52.786;6.892;2022-08-19T17:37:04;25.50;99.90
52669;DHT22;59898;52.786;6.892;2022-08-19T17:40:25;25.50;99.90
52669;DHT22;59898;52.786;6.892;2022-08-19T17:43:46;25.50;99.90
52669;DHT22;59898;52.786;6.892;2022-08-19T17:47:07;25.60;99.90
52669;DHT22;59898;52.786;6.892;2022-08-19T17:50:28;25.60;99.90
52669;DHT22;59898;52.786;6.892;2022-08-19T17:53:51;25.60;99.90
52669;DHT22;59898;52.786;6.892;2022-08-19T17:57:12;25.60;99.90
52669;DHT22;59898;52.786;6.892;2022-08-19T18:00:33;25.60;99.90
52669;DHT22;59898;52.786;6.892;2022-08-19T18:03:55;25.60;99.90
52669;DHT22;59898;52.786;6.892;2022-08-19T18:07:17;25.60;99.90
52669;DHT22;59898;52.786;6.892;2022-08-19T18:10:40;25.60;99.90
52669;DHT22;59898;52.786;6.892;2022-08-19T18:14:01;25.60;99.90
52669;DHT22;59898;52.786;6.892;2022-08-19T18:17:22;25.60;99.90
52669;DHT22;59898;52.786;6.892;2022-08-19T18:20:43;25.60;99.90
52669;DHT22;59898;52.786;6.892;2022-08-19T18:24:04;25.50;99.90
52669;DHT22;59898;52.786;6.892;2022-08-19T18:27:26;25.30;99.90
52669;DHT22;59898;52.786;6.892;2022-08-19T18:30:47;25.20;99.90
52669;DHT22;59898;52.786;6.892;2022-08-19T18:34:08;25.10;99.90
52669;DHT22;59898;52.786;6.892;2022-08-19T18:37:29;25.10;99.90
52669;DHT22;59898;52.786;6.892;2022-08-19T18:40:50;25.00;99.90
52669;DHT22;59898;52.786;6.892;2022-08-19T18:44:29;25.00;99.90
52669;DHT22;59898;52.786;6.892;2022-08-19T18:48:08;24.80;99.90
52669;DHT22;59898;52.786;6.892;2022-08-19T18:51:48;24.60;99.90
52669;DHT22;59898;52.786;6.892;2022-08-19T18:55:10;24.50;99.90
52669;DHT22;59898;52.786;6.892;2022-08-19T18:58:32;24.40;99.90
52669;DHT22;59898;52.786;6.892;2022-08-19T19:01:57;24.40;99.90
52669;DHT22;59898;52.786;6.892;2022-08-19T19:05:19;24.30;99.90
52669;DHT22;59898;52.786;6.892;2022-08-19T19:08:42;24.30;99.90
52669;DHT22;59898;52.786;6.892;2022-08-19T19:12:03;24.20;99.90
52669;DHT22;59898;52.786;6.892;2022-08-19T19:15:24;24.10;99.90
52669;DHT22;59898;52.786;6.892;2022-08-19T19:18:45;24.10;99.90
52669;DHT22;59898;52.786;6.892;2022-08-19T19:22:06;24.10;99.90
52669;DHT22;59898;52.786;6.892;2022-08-19T19:25:26;24.10;99.90
52669;DHT22;59898;52.786;6.892;2022-08-19T19:28:48;24.00;99.90
52669;DHT22;59898;52.786;6.892;2022-08-19T19:32:27;23.90;99.90
52669;DHT22;59898;52.786;6.892;2022-08-19T19:35:49;23.80;99.90
52669;DHT22;59898;52.786;6.892;2022-08-19T19:39:09;23.70;99.90
52669;DHT22;59898;52.786;6.892;2022-08-19T19:42:30;23.60;99.90
52669;DHT22;59898;52.786;6.892;2022-08-19T19:45:51;23.50;99.90
52669;DHT22;59898;52.786;6.892;2022-08-19T19:49:12;23.50;99.90
52669;DHT22;59898;52.786;6.892;2022-08-19T19:52:33;23.40;99.90
52669;DHT22;59898;52.786;6.892;2022-08-19T19:55:54;23.20;99.90
52669;DHT22;59898;52.786;6.892;2022-08-19T19:59:18;23.10;99.90
52669;DHT22;59898;52.786;6.892;2022-08-19T20:02:39;23.00;99.90
52669;DHT22;59898;52.786;6.892;2022-08-19T20:05:59;22.80;99.90
52669;DHT22;59898;52.786;6.892;2022-08-19T20:09:20;22.80;99.90
52669;DHT22;59898;52.786;6.892;2022-08-19T20:12:41;22.70;99.90
52669;DHT22;59898;52.786;6.892;2022-08-19T20:16:01;22.70;99.90
52669;DHT22;59898;52.786;6.892;2022-08-19T20:19:25;22.70;99.90
52669;DHT22;59898;52.786;6.892;2022-08-19T20:22:46;22.60;99.90
52669;DHT22;59898;52.786;6.892;2022-08-19T20:26:06;22.60;99.90
52669;DHT22;59898;52.786;6.892;2022-08-19T20:29:28;22.70;99.90
52669;DHT22;59898;52.786;6.892;2022-08-19T20:32:49;22.70;99.90
52669;DHT22;59898;52.786;6.892;2022-08-19T20:36:10;22.70;99.90
52669;DHT22;59898;52.786;6.892;2022-08-19T20:39:31;22.70;99.90
52669;DHT22;59898;52.786;6.892;2022-08-19T20:42:51;22.70;99.90
52669;DHT22;59898;52.786;6.892;2022-08-19T20:46:13;22.70;99.90
52669;DHT22;59898;52.786;6.892;2022-08-19T20:49:34;22.70;99.90
52669;DHT22;59898;52.786;6.892;2022-08-19T20:52:55;22.70;99.90
52669;DHT22;59898;52.786;6.892;2022-08-19T20:56:16;22.70;99.90
52669;DHT22;59898;52.786;6.892;2022-08-19T20:59:36;22.70;99.90
52669;DHT22;59898;52.786;6.892;2022-08-19T21:02:57;22.70;99.90
52669;DHT22;59898;52.786;6.892;2022-08-19T21:06:19;22.80;99.90
52669;DHT22;59898;52.786;6.892;2022-08-19T21:09:40;22.80;99.90
52669;DHT22;59898;52.786;6.892;2022-08-19T21:13:00;22.70;99.90
52669;DHT22;59898;52.786;6.892;2022-08-19T21:16:23;22.60;99.90
52669;DHT22;59898;52.786;6.892;2022-08-19T21:19:44;22.50;99.90
52669;DHT22;59898;52.786;6.892;2022-08-19T21:23:07;22.40;99.90
52669;DHT22;59898;52.786;6.892;2022-08-19T21:26:28;22.40;99.90